Saturday, May 26, 2018, 8:11 AM EDT
Back to Local

KGTB, Fort Drum / Wheeler-sack U. S. Army Airfield

Location: Fort Drum, NY, United States Lat: 44.05
Local Time: 8:11 AM EDT (12:11 GMT) Lon: -75.733
Time Zone: US/Eastern Elev: 679 ft

Show me the last for .
Show Decoded

2018-05-26 06:56 METAR KGTB 261056Z AUTO 27008KT 10SM FEW065 20/10 A2976 RMK AO2 SLP075 T01960095
                 =
2018-05-26 05:56 METAR KGTB 260956Z AUTO 24008KT 10SM SCT120 20/09 A2973 RMK AO2 SLP064 T02010087
                 =
2018-05-26 04:56 METAR KGTB 260856Z AUTO 23012KT 10SM FEW110 20/08 A2972 RMK AO2 SLP061 T02040081
                 55004 =
2018-05-26 03:56 METAR KGTB 260756Z AUTO 25012G17KT 10SM FEW070 SCT130 21/07 A2973 RMK AO2 SLP065
                 T02080071 =
2018-05-26 02:56 METAR KGTB 260656Z AUTO 23012G18KT 10SM SCT075 21/07 A2972 RMK AO2 SLP061
                 T02090071 =
2018-05-26 01:56 METAR KGTB 260556Z AUTO 25010G16KT 10SM FEW080 21/08 A2974 RMK AO2 SLP068
                 T02110080 10229 20208 57009 =
2018-05-26 00:56 METAR KGTB 260456Z AUTO 24010G18KT 10SM FEW140 21/09 A2974 RMK AO2 SLP068
                 T02140086 402600155 =
2018-05-25 23:56 METAR KGTB 260356Z AUTO 24011G16KT 10SM FEW070 SCT140 21/08 A2975 RMK AO2 SLP072
                 T02080084 =
2018-05-25 22:56 METAR KGTB 260256Z AUTO 24009KT 10SM BKN065 22/08 A2976 RMK AO2 SLP075 T02160081
                 55004 =
2018-05-25 21:56 METAR KGTB 260156Z AUTO 24008G16KT 10SM BKN070 BKN130 22/08 A2977 RMK AO2 SLP078
                 T02190084 =
2018-05-25 20:56 METAR KGTB 260056Z AUTO 24011G16KT 10SM SCT075 22/09 A2976 RMK AO2 SLP075
                 T02200092 =
2018-05-25 19:56 METAR KGTB 252356Z AUTO 25009KT 10SM BKN075 23/10 A2978 RMK AO2 SLP082 60000
                 T02300101 10260 20217 55006 =
2018-05-25 18:56 METAR KGTB 252256Z AUTO 25010G17KT 10SM FEW090 24/10 A2977 RMK AO2
                 RAB28E37DZB37E38 SLP079 P0000 T02350102 =
2018-05-25 18:38 METAR KGTB 252238Z AUTO 25008KT 10SM FEW090 23/10 A2978 RMK AO2 RAB28E37DZB37E38
                 SLP082 =
2018-05-25 18:28 METAR KGTB 252228Z AUTO 25010G15KT 10SM -RA FEW090 24/10 A2978 RMK AO2 RAB28
                 SLP082 =
2018-05-25 17:56 METAR KGTB 252156Z AUTO 24009G16KT 10SM CLR 25/11 A2978 RMK AO2 SLP082 T02540108
                 =
2018-05-25 16:56 METAR KGTB 252056Z AUTO 25015G22KT 10SM CLR 26/11 A2979 RMK AO2 PK WND 24027/24
                 SLP085 T02590105 57020 =
2018-05-25 15:56 METAR KGTB 251956Z AUTO 24008G16KT 10SM FEW100 22/10 A2981 RMK AO2 SLP093
                 T02210102 =
2018-05-25 14:56 METAR KGTB 251856Z AUTO 24014KT 10SM FEW075 22/10 A2984 RMK AO2 SLP103 T02220097
                 =
2018-05-25 13:56 METAR KGTB 251756Z AUTO 23011G19KT 10SM FEW095 SCT170 23/10 A2985 RMK AO2 SLP106
                 T02290100 10233 20191 57019 =
2018-05-25 12:56 METAR KGTB 251656Z AUTO 25009G17KT 10SM FEW200 22/09 A2987 RMK AO2 SLP113
                 T02150094 =
2018-05-25 11:56 METAR KGTB 251556Z AUTO 24009KT 10SM FEW100 21/09 A2989 RMK AO2 SLP120 T02120088
                 =
2018-05-25 10:56 METAR KGTB 251456Z AUTO 24012G19KT 10SM CLR 22/08 A2991 RMK AO2 SLP126 T02200081
                 57010 =
2018-05-25 09:56 METAR KGTB 251356Z AUTO 25014G20KT 10SM CLR 22/07 A2992 RMK AO2 PK WND 24027/08
                 SLP130 T02240070 =
2018-05-25 08:56 METAR KGTB 251256Z AUTO 23015G20KT 10SM CLR 21/07 A2993 RMK AO2 SLP133 T02070073
                 =

Support USWX by starting your Amazon purchase here.